createdAt,value
2022-10-09T01:53:04.889Z,9.50
2022-10-09T01:56:31.451Z,9.50
2022-10-09T01:59:58.006Z,9.40
2022-10-09T02:03:24.584Z,9.40
2022-10-09T02:06:51.128Z,9.40
2022-10-09T02:10:17.676Z,9.30
2022-10-09T02:13:44.256Z,9.40
2022-10-09T02:17:10.805Z,9.50
2022-10-09T02:20:37.355Z,9.50
2022-10-09T02:24:03.895Z,9.50
2022-10-09T02:27:30.444Z,9.60
2022-10-09T02:30:57.016Z,9.70
2022-10-09T02:34:23.601Z,9.80
2022-10-09T02:37:50.149Z,9.90
2022-10-09T02:41:16.698Z,9.90
2022-10-09T02:44:43.234Z,10.00
2022-10-09T02:48:09.841Z,10.00
2022-10-09T02:51:36.441Z,10.10
2022-10-09T02:55:02.991Z,10.00
2022-10-09T02:58:29.545Z,10.00
2022-10-09T03:01:56.213Z,10.00
2022-10-09T03:05:22.841Z,10.00
2022-10-09T03:08:49.364Z,9.90
2022-10-09T03:12:15.922Z,10.00
2022-10-09T03:15:42.511Z,10.00
2022-10-09T03:19:09.054Z,9.90
2022-10-09T03:22:35.597Z,9.90
2022-10-09T03:26:02.142Z,10.00
2022-10-09T03:29:28.694Z,10.00
2022-10-09T03:32:55.260Z,9.90
2022-10-09T03:36:21.794Z,10.00
2022-10-09T03:39:48.344Z,10.10
2022-10-09T03:43:14.873Z,10.10
2022-10-09T03:46:41.470Z,10.10
2022-10-09T03:50:08.062Z,10.20
2022-10-09T03:53:34.630Z,10.10
2022-10-09T03:57:01.152Z,10.20
2022-10-09T04:00:27.696Z,10.30
2022-10-09T04:03:54.263Z,10.30
2022-10-09T04:07:20.796Z,10.40
2022-10-09T04:10:47.382Z,10.40
2022-10-09T04:14:13.930Z,10.60
2022-10-09T04:17:41.079Z,10.70
2022-10-09T04:21:08.614Z,10.70
2022-10-09T04:24:36.052Z,10.80
2022-10-09T04:28:03.588Z,10.80
2022-10-09T04:31:31.200Z,10.80
2022-10-09T04:34:58.656Z,10.90
2022-10-09T04:38:26.116Z,11.00
2022-10-09T04:41:53.556Z,11.10
2022-10-09T04:45:21.004Z,11.10
2022-10-09T04:48:48.498Z,11.10
2022-10-09T04:52:15.923Z,11.10
2022-10-09T04:55:43.389Z,11.20
2022-10-09T04:59:10.823Z,11.30
2022-10-09T05:02:38.360Z,11.30
2022-10-09T05:06:05.902Z,11.30
2022-10-09T05:09:33.334Z,11.30
2022-10-09T05:13:00.801Z,11.10
2022-10-09T05:16:28.398Z,11.10
2022-10-09T05:19:55.879Z,11.10
2022-10-09T05:23:23.344Z,11.10
2022-10-09T05:26:50.776Z,11.10
2022-10-09T05:30:18.227Z,11.10
2022-10-09T05:33:45.665Z,11.00
2022-10-09T05:37:13.141Z,11.00
2022-10-09T05:40:40.638Z,10.90
2022-10-09T05:44:08.086Z,11.00
2022-10-09T05:47:35.545Z,11.00
2022-10-09T05:51:03.000Z,11.10
2022-10-09T05:54:30.428Z,11.10
2022-10-09T05:57:57.877Z,11.10
2022-10-09T06:01:25.330Z,11.20
2022-10-09T06:04:52.847Z,11.30
2022-10-09T06:08:20.334Z,11.30
2022-10-09T06:11:47.800Z,11.30
2022-10-09T06:15:15.244Z,11.30
2022-10-09T06:18:46.726Z,11.40
2022-10-09T06:22:16.236Z,11.40
2022-10-09T06:25:43.659Z,11.40
2022-10-09T06:29:11.117Z,11.40
2022-10-09T06:32:38.593Z,11.50
2022-10-09T06:36:10.258Z,11.50
2022-10-09T06:39:37.985Z,11.50
2022-10-09T06:43:05.420Z,11.50
2022-10-09T06:46:32.941Z,11.50
2022-10-09T06:50:00.413Z,11.50
